createdAt,value
2022-08-29T00:02:22.329Z,3.20
2022-08-29T00:04:58.119Z,4.47
2022-08-29T00:07:26.712Z,5.20
2022-08-29T00:10:14.112Z,5.30
2022-08-29T00:12:57.820Z,5.40
2022-08-29T00:15:45.170Z,3.07
2022-08-29T00:18:15.943Z,4.00
2022-08-29T00:20:52.139Z,5.23
2022-08-29T00:23:27.479Z,5.17
2022-08-29T00:25:56.402Z,4.93
2022-08-29T00:28:32.155Z,5.23
2022-08-29T00:31:02.184Z,2.97
2022-08-29T00:33:39.425Z,3.43
2022-08-29T00:36:08.501Z,2.77
2022-08-29T00:38:44.172Z,4.10
2022-08-29T00:41:12.916Z,3.50
2022-08-29T00:43:48.311Z,3.53
2022-08-29T00:46:46.458Z,3.17
2022-08-29T00:49:33.247Z,4.33
2022-08-29T00:52:07.687Z,4.43
2022-08-29T00:54:44.295Z,3.80
2022-08-29T00:57:14.323Z,5.67
2022-08-29T00:59:49.278Z,6.87
2022-08-29T01:02:47.150Z,6.27
2022-08-29T01:05:26.279Z,4.67
2022-08-29T01:07:54.941Z,7.60
2022-08-29T01:10:47.506Z,5.20
2022-08-29T01:13:26.031Z,5.00
2022-08-29T01:16:02.346Z,6.40
2022-08-29T01:18:33.335Z,5.33
2022-08-29T01:21:25.287Z,5.63
2022-08-29T01:24:03.099Z,5.13
2022-08-29T01:26:41.219Z,6.00
2022-08-29T01:29:09.688Z,6.43
2022-08-29T01:31:56.753Z,7.07
2022-08-29T01:34:28.214Z,7.83
2022-08-29T01:37:05.318Z,5.03
2022-08-29T01:39:35.877Z,8.73
2022-08-29T01:42:16.155Z,6.53
2022-08-29T01:44:50.761Z,4.10
2022-08-29T01:47:28.219Z,8.03
2022-08-29T01:49:57.907Z,7.87
2022-08-29T01:52:33.239Z,6.73
2022-08-29T01:55:01.985Z,6.20
2022-08-29T01:57:38.348Z,5.50
2022-08-29T02:00:09.785Z,9.67
2022-08-29T02:02:45.341Z,8.20
2022-08-29T02:05:14.289Z,8.97
2022-08-29T02:07:49.207Z,7.50
2022-08-29T02:10:19.133Z,5.13
2022-08-29T02:13:02.592Z,4.77
2022-08-29T02:15:31.262Z,7.90
2022-08-29T02:18:06.601Z,4.10
2022-08-29T02:20:35.332Z,6.93
2022-08-29T02:23:27.194Z,7.40
2022-08-29T02:25:58.871Z,7.37
2022-08-29T02:28:35.547Z,6.33
2022-08-29T02:31:05.635Z,5.17
2022-08-29T02:33:41.354Z,7.87
2022-08-29T02:36:10.553Z,6.13
2022-08-29T02:38:46.350Z,6.23
2022-08-29T02:41:14.898Z,6.70
2022-08-29T02:43:51.283Z,6.13
2022-08-29T02:46:28.438Z,4.57
2022-08-29T02:49:00.776Z,6.80
2022-08-29T02:51:38.254Z,4.83
2022-08-29T02:54:06.909Z,5.37
2022-08-29T02:56:35.781Z,5.00
2022-08-29T02:59:12.373Z,4.17
2022-08-29T03:01:40.951Z,7.37
2022-08-29T03:04:16.388Z,4.50
2022-08-29T03:06:51.379Z,8.27
2022-08-29T03:09:19.765Z,4.57
2022-08-29T03:12:03.649Z,3.80
2022-08-29T03:14:33.692Z,4.77
2022-08-29T03:17:08.650Z,6.73
2022-08-29T03:19:37.222Z,5.37
2022-08-29T03:22:12.646Z,5.87
2022-08-29T03:24:41.058Z,4.77
2022-08-29T03:27:16.395Z,4.43
2022-08-29T03:29:46.805Z,4.57
2022-08-29T03:32:21.594Z,5.57
2022-08-29T03:34:50.622Z,5.43
2022-08-29T03:37:26.297Z,4.50
2022-08-29T03:39:55.954Z,5.53
2022-08-29T03:42:30.441Z,6.83
2022-08-29T03:45:00.421Z,5.87
2022-08-29T03:47:35.394Z,5.03
2022-08-29T03:50:03.720Z,5.03
2022-08-29T03:52:39.634Z,7.53
2022-08-29T03:55:09.238Z,4.43
2022-08-29T03:57:44.378Z,4.83
2022-08-29T04:00:18.174Z,6.10
2022-08-29T04:02:54.746Z,4.53
2022-08-29T04:05:23.778Z,4.03
2022-08-29T04:08:00.359Z,5.07
2022-08-29T04:10:33.249Z,3.40
2022-08-29T04:13:15.482Z,3.87
2022-08-29T04:15:45.682Z,7.17
2022-08-29T04:18:21.564Z,4.83
2022-08-29T04:20:50.900Z,5.23
2022-08-29T04:23:26.442Z,3.73
2022-08-29T04:26:12.486Z,6.20
2022-08-29T04:28:50.765Z,4.20
2022-08-29T04:31:21.566Z,4.23
2022-08-29T04:33:58.476Z,4.07
2022-08-29T04:36:28.516Z,3.67
2022-08-29T04:39:04.362Z,3.97
2022-08-29T04:41:33.468Z,4.17
2022-08-29T04:44:08.398Z,4.57
2022-08-29T04:46:39.115Z,3.67
2022-08-29T04:49:14.857Z,7.27
2022-08-29T04:51:43.689Z,5.20
2022-08-29T04:54:18.721Z,5.43
2022-08-29T04:56:47.660Z,6.17
2022-08-29T04:59:23.787Z,5.20
2022-08-29T05:01:54.544Z,7.87
2022-08-29T05:04:29.480Z,6.60
2022-08-29T05:06:59.186Z,9.90
2022-08-29T05:09:34.493Z,9.60
2022-08-29T05:12:23.380Z,10.83
2022-08-29T05:14:58.511Z,10.70
2022-08-29T05:17:29.056Z,10.57
2022-08-29T05:20:04.519Z,9.87
2022-08-29T05:22:33.259Z,11.17
2022-08-29T05:25:08.417Z,11.70
2022-08-29T05:27:36.889Z,10.33
2022-08-29T05:30:13.666Z,9.87
2022-08-29T05:32:44.287Z,8.77
2022-08-29T05:35:19.567Z,11.33
2022-08-29T05:37:48.530Z,9.77
2022-08-29T05:40:23.514Z,9.90
2022-08-29T05:42:51.980Z,10.07
2022-08-29T05:45:27.536Z,15.17
2022-08-29T05:47:57.474Z,15.10
2022-08-29T05:50:32.584Z,10.97
2022-08-29T05:53:02.700Z,11.43
2022-08-29T05:55:37.458Z,13.23
2022-08-29T05:58:06.157Z,8.63
2022-08-29T06:00:42.651Z,11.30
2022-08-29T06:03:15.346Z,13.07
2022-08-29T06:05:50.470Z,14.60
2022-08-29T06:08:19.100Z,13.17
2022-08-29T06:10:54.575Z,15.20
2022-08-29T06:13:29.671Z,19.07
2022-08-29T06:16:04.913Z,16.40
2022-08-29T06:18:35.963Z,15.80
2022-08-29T06:21:12.479Z,16.53
2022-08-29T06:23:42.541Z,12.00
2022-08-29T06:26:18.803Z,12.07
2022-08-29T06:28:48.032Z,11.23
2022-08-29T06:31:27.710Z,12.50
2022-08-29T06:34:02.694Z,11.27
2022-08-29T06:36:38.604Z,11.50
2022-08-29T06:39:11.210Z,8.67
2022-08-29T06:41:47.647Z,6.30
2022-08-29T06:44:16.477Z,9.03
2022-08-29T06:46:54.648Z,10.53
2022-08-29T06:49:27.111Z,9.83
2022-08-29T06:52:02.555Z,11.90
2022-08-29T06:54:31.613Z,8.07
2022-08-29T06:57:07.828Z,10.50
2022-08-29T06:59:36.880Z,7.50
2022-08-29T07:02:12.859Z,13.80
2022-08-29T07:04:42.934Z,9.83
2022-08-29T07:07:18.891Z,10.53
2022-08-29T07:09:47.434Z,10.37
2022-08-29T07:12:30.892Z,9.70
2022-08-29T07:15:07.858Z,9.43
2022-08-29T07:17:42.866Z,9.50
2022-08-29T07:20:14.495Z,5.47
2022-08-29T07:22:49.894Z,7.67
2022-08-29T07:25:19.190Z,10.63
2022-08-29T07:27:54.498Z,9.27
2022-08-29T07:30:23.220Z,7.87
2022-08-29T07:32:58.698Z,5.80
2022-08-29T07:35:30.834Z,5.73
2022-08-29T07:38:07.582Z,5.57
2022-08-29T07:40:36.113Z,6.30
2022-08-29T07:43:14.433Z,6.93
2022-08-29T07:45:45.141Z,7.87
2022-08-29T07:48:23.077Z,9.40
2022-08-29T07:50:53.144Z,4.73
2022-08-29T07:53:28.862Z,5.97
2022-08-29T07:55:57.639Z,10.07
2022-08-29T07:58:33.666Z,8.13
2022-08-29T08:01:04.195Z,7.90
2022-08-29T08:03:39.662Z,3.17
2022-08-29T08:06:11.475Z,6.13
2022-08-29T08:08:47.676Z,5.17
2022-08-29T08:11:16.256Z,6.60
2022-08-29T08:13:57.602Z,4.27
2022-08-29T08:16:28.637Z,6.33
2022-08-29T08:19:04.609Z,6.43
2022-08-29T08:21:34.976Z,5.57
2022-08-29T08:24:10.702Z,4.10
2022-08-29T08:26:39.380Z,7.23
2022-08-29T08:29:14.921Z,7.20
2022-08-29T08:31:45.557Z,10.83
2022-08-29T08:34:22.766Z,8.77
2022-08-29T08:36:52.866Z,5.80
2022-08-29T08:39:27.934Z,8.37
2022-08-29T08:41:58.689Z,7.17
2022-08-29T08:45:03.588Z,5.50
2022-08-29T08:47:35.693Z,5.43
2022-08-29T08:50:16.919Z,9.13
2022-08-29T08:52:52.041Z,3.27
2022-08-29T08:55:35.703Z,7.50
2022-08-29T08:58:11.356Z,7.23
2022-08-29T09:00:54.049Z,6.60
2022-08-29T09:03:55.219Z,6.03
2022-08-29T09:06:43.751Z,9.57
2022-08-29T09:09:22.136Z,4.83
2022-08-29T09:12:08.729Z,9.90
2022-08-29T09:14:58.045Z,6.57
2022-08-29T09:17:39.614Z,4.23
2022-08-29T09:20:10.961Z,6.50
2022-08-29T09:22:49.035Z,6.60
2022-08-29T09:25:19.148Z,4.87
2022-08-29T09:27:56.751Z,5.93
2022-08-29T09:30:28.014Z,8.60
2022-08-29T09:33:09.176Z,4.27
2022-08-29T09:35:41.569Z,6.23
2022-08-29T09:38:17.748Z,10.17
2022-08-29T09:40:52.210Z,5.37
2022-08-29T09:43:32.664Z,5.33
2022-08-29T09:46:13.818Z,8.90
2022-08-29T09:48:50.761Z,9.37
2022-08-29T09:51:26.642Z,9.03
2022-08-29T09:54:03.010Z,7.60
2022-08-29T09:56:33.209Z,6.23
2022-08-29T09:59:11.683Z,5.00
2022-08-29T10:01:41.197Z,3.47
2022-08-29T10:04:16.606Z,7.60
2022-08-29T10:06:52.097Z,6.40
2022-08-29T10:09:35.038Z,5.47
2022-08-29T10:12:18.127Z,5.53
2022-08-29T10:15:05.259Z,5.20
2022-08-29T10:17:56.926Z,4.87
2022-08-29T10:20:40.687Z,7.17
2022-08-29T10:23:21.832Z,7.07
2022-08-29T10:25:57.705Z,5.37
2022-08-29T10:28:39.527Z,3.23
2022-08-29T10:31:23.713Z,3.27
2022-08-29T10:34:04.703Z,5.20
2022-08-29T10:36:42.648Z,4.60
2022-08-29T10:39:15.735Z,5.43
2022-08-29T10:42:02.049Z,6.37
2022-08-29T10:44:39.329Z,6.00
2022-08-29T10:47:32.810Z,3.77
2022-08-29T10:50:27.603Z,7.37
2022-08-29T10:53:14.743Z,6.23
2022-08-29T10:56:05.900Z,3.67
2022-08-29T10:58:55.798Z,6.57
2022-08-29T11:01:34.646Z,5.17
2022-08-29T11:04:24.182Z,6.77
2022-08-29T11:07:00.095Z,5.73
2022-08-29T11:09:37.872Z,5.53
2022-08-29T11:12:25.092Z,6.10
2022-08-29T11:15:04.792Z,6.23
2022-08-29T11:17:48.057Z,5.47
2022-08-29T11:20:24.520Z,4.37
2022-08-29T11:23:05.771Z,7.27
2022-08-29T11:25:42.104Z,7.77
2022-08-29T11:28:30.306Z,5.50
2022-08-29T11:31:05.324Z,3.83
2022-08-29T11:33:49.701Z,3.33
2022-08-29T11:36:55.091Z,5.40
2022-08-29T11:39:57.936Z,4.23
2022-08-29T11:45:36.957Z,7.67
2022-08-29T11:48:22.050Z,4.30
2022-08-29T11:50:59.944Z,4.77
2022-08-29T11:53:35.196Z,4.87
2022-08-29T11:56:30.113Z,3.83
2022-08-29T11:59:00.530Z,6.43
2022-08-29T12:02:04.940Z,8.53
2022-08-29T12:04:57.212Z,7.03
2022-08-29T12:07:43.773Z,8.13
2022-08-29T12:10:25.387Z,4.37
2022-08-29T12:13:08.813Z,4.60
2022-08-29T12:15:55.166Z,4.93
2022-08-29T12:18:50.912Z,3.87
2022-08-29T12:21:50.133Z,7.30
2022-08-29T12:24:57.264Z,5.20
2022-08-29T12:28:00.606Z,4.57
2022-08-29T12:30:36.925Z,5.50
2022-08-29T12:33:14.934Z,6.30
2022-08-29T12:36:14.825Z,5.73
2022-08-29T12:38:57.584Z,3.30
2022-08-29T12:41:48.981Z,4.47
2022-08-29T12:44:22.075Z,3.95
2022-08-29T12:47:01.954Z,3.63
2022-08-29T12:49:36.211Z,4.97
2022-08-29T12:52:14.816Z,3.23
2022-08-29T12:54:45.962Z,3.45
2022-08-29T12:57:27.921Z,4.97
2022-08-29T12:59:58.386Z,3.77
2022-08-29T13:02:37.005Z,5.53
2022-08-29T13:05:19.279Z,3.93
2022-08-29T13:08:03.200Z,7.13
2022-08-29T13:10:31.915Z,10.40
2022-08-29T13:13:18.987Z,6.77
2022-08-29T13:15:59.046Z,5.13
2022-08-29T13:18:48.854Z,7.23
2022-08-29T13:21:25.149Z,7.57
2022-08-29T13:24:12.214Z,7.53
2022-08-29T13:26:55.898Z,4.80
2022-08-29T13:29:44.173Z,6.20
2022-08-29T13:32:24.251Z,5.67
2022-08-29T13:35:11.810Z,4.80
2022-08-29T13:37:42.090Z,5.13
2022-08-29T13:40:38.103Z,5.40
2022-08-29T13:43:08.547Z,4.23
2022-08-29T13:45:46.926Z,5.63
2022-08-29T13:48:20.699Z,5.17
2022-08-29T13:50:56.211Z,4.87
2022-08-29T13:53:24.379Z,7.35
2022-08-29T13:56:00.227Z,5.37
2022-08-29T13:58:30.461Z,5.63
2022-08-29T14:01:29.543Z,3.60
2022-08-29T14:04:27.120Z,7.93
2022-08-29T14:06:58.247Z,4.13
2022-08-29T14:09:34.104Z,4.87
2022-08-29T14:12:09.037Z,5.97
2022-08-29T14:14:58.023Z,6.30
2022-08-29T14:17:34.116Z,2.90
2022-08-29T14:20:02.540Z,5.03
2022-08-29T14:22:38.050Z,6.33
2022-08-29T14:25:08.229Z,4.60
2022-08-29T14:27:43.047Z,4.43
2022-08-29T14:30:14.132Z,5.53
2022-08-29T14:32:50.056Z,5.53
2022-08-29T14:35:26.084Z,4.07
2022-08-29T14:38:03.298Z,4.03
2022-08-29T14:40:32.890Z,3.70
2022-08-29T14:43:10.029Z,5.90
2022-08-29T14:45:39.027Z,6.77
2022-08-29T14:48:15.430Z,5.00
2022-08-29T14:50:44.182Z,4.30
2022-08-29T14:53:19.250Z,5.67
2022-08-29T14:55:47.658Z,3.37
2022-08-29T14:58:22.941Z,5.90
2022-08-29T15:00:51.965Z,5.03
2022-08-29T15:03:32.100Z,4.80
2022-08-29T15:06:01.303Z,5.90
2022-08-29T15:08:37.141Z,7.80
2022-08-29T15:11:05.918Z,6.67
2022-08-29T15:13:47.953Z,5.00
2022-08-29T15:16:16.574Z,3.90
2022-08-29T15:19:37.198Z,5.07
2022-08-29T15:21:41.942Z,3.77
2022-08-29T15:24:16.987Z,4.67
2022-08-29T15:26:45.902Z,4.93
2022-08-29T15:29:21.081Z,3.87
2022-08-29T15:31:51.730Z,5.07
2022-08-29T15:34:28.011Z,6.10
2022-08-29T15:36:57.686Z,3.70
2022-08-29T15:39:35.001Z,6.50
2022-08-29T15:42:08.517Z,6.53
2022-08-29T15:44:44.109Z,4.70
2022-08-29T15:47:13.560Z,3.27
2022-08-29T15:49:51.017Z,5.50
2022-08-29T15:52:19.822Z,5.27
2022-08-29T15:54:55.031Z,3.77
2022-08-29T15:57:23.690Z,5.30
2022-08-29T15:59:59.314Z,5.03
2022-08-29T16:02:28.197Z,5.67
2022-08-29T16:05:04.358Z,5.27
2022-08-29T16:07:32.980Z,4.60
2022-08-29T16:10:10.780Z,7.53
2022-08-29T16:12:40.678Z,4.20
2022-08-29T16:15:23.162Z,4.23
2022-08-29T16:17:54.396Z,4.50
2022-08-29T16:20:31.138Z,6.83
2022-08-29T16:23:00.456Z,4.33
2022-08-29T16:25:38.362Z,5.70
2022-08-29T16:28:07.428Z,4.80
2022-08-29T16:30:45.726Z,3.77
2022-08-29T16:33:14.608Z,8.23
2022-08-29T16:35:51.173Z,6.30
2022-08-29T16:38:19.820Z,6.17
2022-08-29T16:40:55.037Z,5.63
2022-08-29T16:43:26.570Z,7.77
2022-08-29T16:46:01.179Z,4.73
2022-08-29T16:48:29.797Z,6.53
2022-08-29T16:51:06.429Z,7.17
2022-08-29T16:53:39.227Z,8.57
2022-08-29T16:56:16.059Z,5.53
2022-08-29T16:59:02.306Z,4.43
2022-08-29T17:01:39.381Z,4.07
2022-08-29T17:04:10.798Z,6.40
2022-08-29T17:06:49.412Z,6.40
2022-08-29T17:09:20.080Z,4.03
2022-08-29T17:11:54.187Z,5.93
2022-08-29T17:14:29.943Z,4.70
2022-08-29T17:17:05.170Z,4.00
2022-08-29T17:19:41.449Z,3.67
2022-08-29T17:22:15.854Z,5.77
2022-08-29T17:24:54.383Z,4.33
2022-08-29T17:27:30.396Z,7.47
2022-08-29T17:29:59.177Z,4.57
2022-08-29T17:32:35.049Z,5.07
2022-08-29T17:35:03.824Z,3.80
2022-08-29T17:37:40.176Z,5.60
2022-08-29T17:40:10.535Z,4.87
2022-08-29T17:42:46.242Z,4.63
2022-08-29T17:45:14.679Z,4.90
2022-08-29T17:47:50.122Z,6.23
2022-08-29T17:50:20.380Z,3.47
2022-08-29T17:52:57.142Z,3.33
2022-08-29T17:55:27.631Z,4.97
2022-08-29T17:58:06.287Z,3.97
2022-08-29T18:00:36.114Z,6.27
2022-08-29T18:03:11.237Z,5.60
2022-08-29T18:05:40.320Z,4.77
2022-08-29T18:08:17.297Z,7.97
2022-08-29T18:10:46.074Z,5.13
2022-08-29T18:13:28.291Z,6.43
2022-08-29T18:16:03.936Z,5.70
2022-08-29T18:18:41.677Z,6.93
2022-08-29T18:21:12.445Z,3.50
2022-08-29T18:23:52.473Z,6.53
2022-08-29T18:26:21.046Z,4.70
2022-08-29T18:28:56.180Z,5.13
2022-08-29T18:31:24.920Z,5.47
2022-08-29T18:34:01.205Z,5.87
2022-08-29T18:36:30.485Z,6.50
2022-08-29T18:39:07.333Z,4.07
2022-08-29T18:41:36.086Z,4.90
2022-08-29T18:44:12.281Z,5.73
2022-08-29T18:46:47.945Z,6.60
2022-08-29T18:49:23.198Z,4.97
2022-08-29T18:51:51.879Z,5.53
2022-08-29T18:54:31.104Z,8.40
2022-08-29T18:56:59.646Z,5.10
2022-08-29T18:59:36.237Z,3.73
2022-08-29T19:02:05.412Z,3.07
2022-08-29T19:04:41.359Z,7.77
2022-08-29T19:07:09.917Z,9.67
2022-08-29T19:09:46.234Z,4.47
2022-08-29T19:12:16.663Z,10.87
2022-08-29T19:14:58.524Z,6.37
2022-08-29T19:17:30.040Z,8.13
2022-08-29T19:20:24.917Z,5.43
2022-08-29T19:22:55.946Z,5.47
2022-08-29T19:25:33.529Z,5.70
2022-08-29T19:28:02.888Z,6.70
2022-08-29T19:30:38.298Z,7.30
2022-08-29T19:33:07.139Z,6.17
2022-08-29T19:35:42.578Z,5.97
2022-08-29T19:38:12.646Z,6.50
2022-08-29T19:40:49.703Z,5.33
2022-08-29T19:43:18.664Z,5.57
2022-08-29T19:45:54.655Z,8.07
2022-08-29T19:48:23.595Z,4.10
2022-08-29T19:51:00.290Z,7.47
2022-08-29T19:53:29.134Z,6.07
2022-08-29T19:56:05.614Z,4.30
2022-08-29T19:58:37.518Z,4.63
2022-08-29T20:01:16.291Z,5.70
2022-08-29T20:03:44.977Z,6.00
2022-08-29T20:06:20.584Z,5.17
2022-08-29T20:08:49.125Z,5.63
2022-08-29T20:11:28.655Z,5.50
2022-08-29T20:14:16.379Z,6.27
2022-08-29T20:16:52.624Z,4.87
2022-08-29T20:19:21.884Z,5.20
2022-08-29T20:21:57.356Z,3.80
2022-08-29T20:24:26.498Z,5.43
2022-08-29T20:27:03.266Z,7.97
2022-08-29T20:29:32.282Z,6.27
2022-08-29T20:32:08.603Z,4.07
2022-08-29T20:34:37.325Z,5.33
2022-08-29T20:37:17.610Z,6.57
2022-08-29T20:39:48.250Z,5.93
2022-08-29T20:42:27.386Z,4.17
2022-08-29T20:44:57.613Z,8.17
2022-08-29T20:47:26.426Z,5.83
2022-08-29T20:50:04.661Z,5.53
2022-08-29T20:52:33.184Z,10.03
2022-08-29T20:55:08.385Z,8.83
2022-08-29T20:57:46.398Z,7.73
2022-08-29T21:00:16.113Z,8.53
2022-08-29T21:03:08.403Z,6.27
2022-08-29T21:05:45.597Z,5.53
2022-08-29T21:08:23.398Z,7.10
2022-08-29T21:10:53.780Z,5.07
2022-08-29T21:13:30.461Z,5.97
2022-08-29T21:16:05.814Z,7.70
2022-08-29T21:18:40.317Z,7.20
2022-08-29T21:21:12.136Z,6.77
2022-08-29T21:23:47.457Z,3.53
2022-08-29T21:26:16.412Z,6.83
2022-08-29T21:28:53.799Z,5.87
2022-08-29T21:31:24.030Z,7.10
2022-08-29T21:33:59.341Z,8.20
2022-08-29T21:36:29.933Z,7.40
2022-08-29T21:39:07.396Z,7.27
2022-08-29T21:41:40.093Z,6.83
2022-08-29T21:44:18.273Z,6.47
2022-08-29T21:46:48.207Z,6.07
2022-08-29T21:49:25.326Z,5.43
2022-08-29T21:51:54.394Z,6.33
2022-08-29T21:54:30.342Z,4.10
2022-08-29T21:56:58.732Z,6.20
2022-08-29T21:59:35.286Z,4.73
2022-08-29T22:02:05.454Z,8.67
2022-08-29T22:04:42.701Z,7.03
2022-08-29T22:07:11.186Z,4.23
2022-08-29T22:09:46.536Z,4.33
2022-08-29T22:12:14.923Z,4.90
2022-08-29T22:15:15.756Z,5.73
2022-08-29T22:17:44.279Z,8.40
2022-08-29T22:20:19.368Z,6.30
2022-08-29T22:22:54.465Z,6.03
2022-08-29T22:25:23.587Z,4.87
2022-08-29T22:27:58.637Z,4.33
2022-08-29T22:30:32.526Z,7.20
2022-08-29T22:33:07.855Z,5.10
2022-08-29T22:35:37.204Z,10.70
2022-08-29T22:38:12.510Z,8.17
2022-08-29T22:40:40.934Z,5.40
2022-08-29T22:43:16.491Z,6.17
2022-08-29T22:45:53.494Z,4.97
2022-08-29T22:48:21.849Z,6.53
2022-08-29T22:50:58.067Z,4.57
2022-08-29T22:53:26.835Z,6.10
2022-08-29T22:56:01.506Z,6.83
2022-08-29T22:58:36.735Z,8.23
2022-08-29T23:01:07.648Z,5.53
2022-08-29T23:03:42.528Z,8.00
2022-08-29T23:06:10.806Z,11.03
2022-08-29T23:08:45.741Z,6.00
2022-08-29T23:11:14.806Z,6.57
2022-08-29T23:13:52.652Z,7.47
2022-08-29T23:16:29.220Z,7.40
2022-08-29T23:19:04.557Z,8.23
2022-08-29T23:21:33.978Z,7.03
2022-08-29T23:24:08.407Z,5.43
2022-08-29T23:26:37.150Z,7.43
2022-08-29T23:29:12.538Z,6.93
2022-08-29T23:31:49.557Z,8.60
2022-08-29T23:34:17.887Z,9.87
2022-08-29T23:36:52.560Z,7.13
2022-08-29T23:39:20.817Z,8.80
2022-08-29T23:41:55.549Z,6.30
2022-08-29T23:44:30.544Z,8.30
2022-08-29T23:47:00.330Z,9.20
2022-08-29T23:49:35.763Z,7.97
2022-08-29T23:52:04.673Z,7.03
2022-08-29T23:54:42.768Z,7.70
2022-08-29T23:57:17.448Z,7.70
